createdAt,value
2022-12-27T00:01:48.823Z,1.20
2022-12-27T00:04:19.891Z,1.30
2022-12-27T00:06:48.441Z,1.38
2022-12-27T00:09:17.154Z,1.25
2022-12-27T00:11:47.212Z,1.30
2022-12-27T00:14:27.414Z,1.10
2022-12-27T00:16:56.325Z,1.50
2022-12-27T00:19:25.057Z,2.40
2022-12-27T00:21:53.547Z,1.60
2022-12-27T00:24:22.177Z,1.75
2022-12-27T00:26:51.383Z,1.55
2022-12-27T00:29:21.858Z,1.63
2022-12-27T00:31:50.882Z,1.63
2022-12-27T00:34:19.619Z,1.25
2022-12-27T00:36:48.473Z,1.50
2022-12-27T00:39:19.086Z,1.35
2022-12-27T00:41:47.992Z,1.70
2022-12-27T00:44:16.848Z,1.63
2022-12-27T00:46:47.009Z,1.50
2022-12-27T00:49:15.792Z,1.48
2022-12-27T00:51:44.530Z,1.70
2022-12-27T00:54:13.174Z,1.73
2022-12-27T00:56:41.845Z,1.70
2022-12-27T00:59:12.783Z,1.58
2022-12-27T01:01:42.746Z,1.80
2022-12-27T01:04:15.709Z,1.58
2022-12-27T01:06:44.404Z,1.50
2022-12-27T01:09:13.013Z,1.88
2022-12-27T01:11:41.974Z,1.85
2022-12-27T01:14:15.823Z,1.40
2022-12-27T01:16:47.584Z,1.70
2022-12-27T01:19:18.070Z,1.33
2022-12-27T01:21:46.681Z,1.40
2022-12-27T01:24:15.330Z,1.35
2022-12-27T01:26:43.912Z,1.95
2022-12-27T01:29:13.246Z,1.05
2022-12-27T01:31:42.604Z,1.20
2022-12-27T01:34:20.025Z,1.23
2022-12-27T01:37:06.158Z,1.00
2022-12-27T01:39:40.324Z,1.13
2022-12-27T01:42:45.226Z,1.05
2022-12-27T01:45:16.142Z,1.00
2022-12-27T01:47:48.120Z,1.60
2022-12-27T01:50:19.913Z,1.38
2022-12-27T01:52:52.177Z,1.10
2022-12-27T01:55:22.911Z,1.13
2022-12-27T01:57:52.463Z,1.25
2022-12-27T02:00:22.767Z,1.27
2022-12-27T02:02:52.944Z,1.30
2022-12-27T02:05:22.470Z,0.85
2022-12-27T02:08:07.071Z,1.38
2022-12-27T02:10:35.801Z,1.15
2022-12-27T02:13:06.617Z,1.00
2022-12-27T02:15:35.841Z,1.55
2022-12-27T02:18:04.308Z,1.00
2022-12-27T02:20:35.997Z,0.98
2022-12-27T02:23:46.291Z,1.02
2022-12-27T02:26:23.637Z,1.00
2022-12-27T02:29:01.908Z,0.85
2022-12-27T02:31:32.464Z,1.00
2022-12-27T02:34:01.465Z,0.85
2022-12-27T02:36:32.166Z,1.00
2022-12-27T02:39:01.750Z,0.80
2022-12-27T02:41:49.237Z,0.82
2022-12-27T02:44:37.952Z,0.82
2022-12-27T02:47:24.846Z,0.75
2022-12-27T02:50:10.667Z,0.88
2022-12-27T02:53:03.001Z,0.88
2022-12-27T02:55:34.999Z,1.02
2022-12-27T02:58:14.209Z,0.93
2022-12-27T03:01:05.673Z,0.63
2022-12-27T03:03:44.675Z,0.80
2022-12-27T03:06:43.174Z,1.15
2022-12-27T03:09:36.483Z,0.70
2022-12-27T03:12:26.222Z,0.75
2022-12-27T03:15:14.506Z,1.05
2022-12-27T03:17:52.168Z,0.80
2022-12-27T03:20:39.067Z,0.98
2022-12-27T03:23:27.051Z,0.80
2022-12-27T03:25:56.885Z,0.88
2022-12-27T03:28:45.706Z,0.77
2022-12-27T03:31:33.902Z,0.65
2022-12-27T03:34:28.380Z,0.77
2022-12-27T03:37:12.151Z,1.00
2022-12-27T03:39:43.987Z,0.95
2022-12-27T03:42:34.568Z,0.90
2022-12-27T03:45:02.936Z,1.20
2022-12-27T03:47:32.767Z,0.90
2022-12-27T03:50:05.960Z,0.80
2022-12-27T03:52:36.540Z,0.80
2022-12-27T03:55:06.014Z,1.10
2022-12-27T03:57:34.327Z,0.85
2022-12-27T04:00:02.641Z,0.85
2022-12-27T04:02:31.371Z,0.70
2022-12-27T04:04:59.858Z,1.13
2022-12-27T04:07:29.530Z,0.75
2022-12-27T04:10:15.610Z,1.33
2022-12-27T04:13:05.424Z,0.90
2022-12-27T04:15:51.300Z,1.20
2022-12-27T04:18:37.402Z,0.80
2022-12-27T04:21:23.372Z,0.90
2022-12-27T04:24:10.711Z,0.88
2022-12-27T04:26:56.568Z,1.00
2022-12-27T04:29:42.522Z,1.50
2022-12-27T04:32:28.412Z,0.95
2022-12-27T04:34:56.813Z,1.02
2022-12-27T04:37:25.242Z,1.00
2022-12-27T04:40:09.009Z,0.93
2022-12-27T04:42:54.813Z,0.93
2022-12-27T04:45:41.513Z,0.88
2022-12-27T04:48:30.918Z,0.70
2022-12-27T04:51:17.153Z,0.70
2022-12-27T04:54:02.990Z,0.93
2022-12-27T04:56:32.768Z,1.30
2022-12-27T04:59:18.584Z,1.08
2022-12-27T05:02:01.083Z,1.40
2022-12-27T05:04:29.538Z,1.13
2022-12-27T05:06:58.535Z,1.10
2022-12-27T05:09:44.370Z,1.30
2022-12-27T05:12:31.722Z,1.05
2022-12-27T05:15:00.060Z,1.30
2022-12-27T05:17:28.440Z,1.50
2022-12-27T05:19:56.740Z,1.00
2022-12-27T05:22:42.658Z,1.33
2022-12-27T05:25:30.289Z,1.50
2022-12-27T05:28:00.076Z,1.30
2022-12-27T05:30:28.412Z,1.40
2022-12-27T05:32:57.056Z,1.30
2022-12-27T05:35:25.431Z,1.42
2022-12-27T05:37:55.283Z,1.33
2022-12-27T05:40:23.800Z,1.73
2022-12-27T05:42:52.151Z,1.77
2022-12-27T05:45:22.254Z,1.60
2022-12-27T05:47:50.717Z,1.48
2022-12-27T05:50:19.635Z,1.67
2022-12-27T05:52:58.404Z,1.40
2022-12-27T05:55:33.616Z,1.55
2022-12-27T05:58:06.067Z,1.40
2022-12-27T06:00:36.189Z,1.55
2022-12-27T06:03:09.074Z,1.52
2022-12-27T06:05:41.064Z,1.65
2022-12-27T06:08:09.787Z,1.58
2022-12-27T06:10:38.633Z,1.60
2022-12-27T06:13:29.353Z,2.05
2022-12-27T06:16:01.382Z,1.50
2022-12-27T06:18:30.887Z,1.58
2022-12-27T06:21:02.798Z,1.98
2022-12-27T06:23:31.219Z,1.50
2022-12-27T06:25:59.529Z,1.65
2022-12-27T06:28:28.078Z,2.08
2022-12-27T06:30:56.421Z,1.92
2022-12-27T06:33:26.275Z,1.73
2022-12-27T06:35:54.692Z,2.05
2022-12-27T06:38:23.243Z,1.80
2022-12-27T06:40:51.617Z,1.88
2022-12-27T06:43:19.888Z,1.77
2022-12-27T06:45:57.152Z,1.83
2022-12-27T06:48:27.046Z,2.22
2022-12-27T06:50:55.374Z,1.90
2022-12-27T06:53:23.699Z,2.30
2022-12-27T06:55:52.109Z,2.60
2022-12-27T06:58:20.453Z,1.95
2022-12-27T07:00:48.850Z,1.92
2022-12-27T07:03:17.350Z,1.73
2022-12-27T07:05:46.993Z,1.90
2022-12-27T07:08:15.260Z,2.65
2022-12-27T07:10:43.681Z,2.42
2022-12-27T07:13:11.947Z,2.40
2022-12-27T07:15:40.222Z,2.28
2022-12-27T07:18:08.484Z,2.20
2022-12-27T07:20:37.230Z,2.10
2022-12-27T07:23:07.237Z,2.15
2022-12-27T07:25:35.493Z,2.80
2022-12-27T07:28:03.763Z,2.38
2022-12-27T07:30:32.203Z,2.60
2022-12-27T07:33:00.430Z,2.28
2022-12-27T07:35:28.714Z,2.05
2022-12-27T07:37:57.409Z,1.98
2022-12-27T07:40:27.109Z,2.28
2022-12-27T07:42:55.373Z,2.10
2022-12-27T07:45:23.818Z,2.78
2022-12-27T07:47:52.074Z,2.35
2022-12-27T07:50:20.637Z,2.47
2022-12-27T07:52:49.296Z,2.00
2022-12-27T07:55:17.699Z,2.17
2022-12-27T07:57:47.682Z,2.00
2022-12-27T08:00:16.366Z,2.42
2022-12-27T08:02:46.917Z,2.42
2022-12-27T08:05:15.365Z,2.15
2022-12-27T08:07:48.021Z,2.33
2022-12-27T08:10:18.648Z,2.58
2022-12-27T08:13:15.371Z,2.25
2022-12-27T08:20:30.365Z,2.67
2022-12-27T08:34:38.567Z,2.40
2022-12-27T08:37:12.028Z,2.30
2022-12-27T08:39:45.482Z,2.78
2022-12-27T08:42:16.243Z,2.63
2022-12-27T08:46:00.168Z,2.00
2022-12-27T08:49:09.756Z,2.08
2022-12-27T08:52:24.929Z,2.13
2022-12-27T08:56:09.795Z,1.77
2022-12-27T09:04:12.002Z,2.45
2022-12-27T09:07:54.143Z,2.30
2022-12-27T09:12:14.337Z,2.47
2022-12-27T09:18:09.647Z,1.88
2022-12-27T09:21:00.968Z,1.95
2022-12-27T09:23:55.017Z,1.85
2022-12-27T09:30:28.972Z,1.92
2022-12-27T09:33:27.912Z,1.92
2022-12-27T09:36:53.475Z,1.90
2022-12-27T09:39:34.196Z,2.38
2022-12-27T09:42:46.696Z,2.20
2022-12-27T09:45:02.337Z,2.17
2022-12-27T09:47:35.078Z,2.50
2022-12-27T09:50:06.667Z,2.60
2022-12-27T09:52:40.758Z,2.13
2022-12-27T09:55:14.434Z,2.05
2022-12-27T09:57:44.188Z,2.15
2022-12-27T10:00:19.183Z,2.47
2022-12-27T10:03:28.360Z,2.20
2022-12-27T10:06:02.218Z,2.40
2022-12-27T10:08:37.493Z,2.00
2022-12-27T10:14:26.629Z,2.50
2022-12-27T10:17:29.539Z,2.28
2022-12-27T10:26:00.750Z,2.20
2022-12-27T10:28:35.671Z,2.38
2022-12-27T10:31:05.436Z,3.00
2022-12-27T10:33:35.458Z,2.13
2022-12-27T10:36:08.345Z,2.20
2022-12-27T10:38:37.000Z,2.53
2022-12-27T10:41:19.116Z,2.22
2022-12-27T10:43:49.686Z,2.72
2022-12-27T10:46:19.291Z,2.60
2022-12-27T10:49:20.227Z,2.30
2022-12-27T10:51:45.376Z,2.20
2022-12-27T10:54:14.603Z,2.60
2022-12-27T10:56:45.648Z,2.50
2022-12-27T10:59:16.734Z,3.00
2022-12-27T11:01:50.157Z,2.47
2022-12-27T11:04:27.638Z,2.50
2022-12-27T11:07:14.097Z,2.60
2022-12-27T11:09:50.296Z,2.85
2022-12-27T11:12:21.917Z,2.90
2022-12-27T11:14:58.031Z,2.92
2022-12-27T11:17:28.076Z,3.10
2022-12-27T11:19:57.796Z,3.47
2022-12-27T11:22:26.706Z,2.78
2022-12-27T11:24:56.626Z,3.40
2022-12-27T11:27:27.768Z,3.72
2022-12-27T11:29:57.832Z,3.33
2022-12-27T11:32:26.731Z,3.47
2022-12-27T11:34:56.290Z,2.97
2022-12-27T11:37:39.263Z,3.08
2022-12-27T11:41:28.018Z,3.08
2022-12-27T11:44:20.937Z,2.85
2022-12-27T11:47:17.959Z,3.50
2022-12-27T11:49:51.960Z,3.00
2022-12-27T11:52:36.864Z,3.65
2022-12-27T11:55:28.993Z,3.35
2022-12-27T11:58:16.077Z,3.55
2022-12-27T12:00:51.406Z,3.80
2022-12-27T12:03:38.035Z,2.80
2022-12-27T12:06:14.954Z,2.92
2022-12-27T12:09:04.414Z,3.13
2022-12-27T12:11:41.926Z,3.47
2022-12-27T12:14:28.211Z,3.20
2022-12-27T12:17:09.624Z,3.13
2022-12-27T12:20:06.392Z,3.10
2022-12-27T12:22:52.316Z,3.35
2022-12-27T12:25:44.058Z,3.28
2022-12-27T12:28:58.335Z,3.20
2022-12-27T12:31:29.280Z,2.72
2022-12-27T12:34:36.763Z,2.42
2022-12-27T12:37:29.362Z,2.90
2022-12-27T12:43:27.128Z,2.20
2022-12-27T12:54:48.346Z,2.65
2022-12-27T12:57:26.021Z,2.50
2022-12-27T13:00:09.073Z,3.00
2022-12-27T13:02:57.581Z,2.67
2022-12-27T13:05:31.487Z,2.53
2022-12-27T13:08:03.698Z,2.70
2022-12-27T13:10:49.194Z,2.30
2022-12-27T13:13:19.219Z,2.10
2022-12-27T13:15:58.397Z,2.13
2022-12-27T13:18:30.798Z,2.75
2022-12-27T13:21:16.653Z,2.15
2022-12-27T13:27:43.517Z,2.22
2022-12-27T13:30:47.390Z,2.47
2022-12-27T13:33:44.180Z,3.05
2022-12-27T13:44:57.858Z,2.97
2022-12-27T13:51:20.540Z,3.65
2022-12-27T13:54:10.377Z,3.38
2022-12-27T13:56:55.357Z,2.70
2022-12-27T13:59:56.300Z,2.85
2022-12-27T14:06:40.856Z,2.83
2022-12-27T14:27:28.064Z,3.40
2022-12-27T14:39:35.411Z,3.15
2022-12-27T14:42:22.656Z,2.55
2022-12-27T14:45:11.311Z,3.10
2022-12-27T14:48:03.982Z,3.15
2022-12-27T14:50:54.864Z,2.90
2022-12-27T14:53:42.543Z,2.90
2022-12-27T14:56:38.638Z,2.88
2022-12-27T14:59:15.796Z,3.00
2022-12-27T15:01:54.619Z,2.92
2022-12-27T15:04:46.188Z,2.70
2022-12-27T15:07:22.330Z,2.90
2022-12-27T15:10:17.849Z,3.10
2022-12-27T15:12:49.717Z,2.72
2022-12-27T15:15:33.279Z,2.90
2022-12-27T15:18:11.253Z,2.67
2022-12-27T15:21:04.760Z,2.88
2022-12-27T15:23:42.716Z,2.55
2022-12-27T15:26:17.776Z,2.47
2022-12-27T15:28:53.568Z,2.83
2022-12-27T15:31:27.411Z,2.10
2022-12-27T15:34:06.351Z,2.40
2022-12-27T15:36:40.119Z,2.60
2022-12-27T15:39:31.677Z,1.92
2022-12-27T15:42:06.198Z,2.63
2022-12-27T15:44:42.771Z,2.42
2022-12-27T15:47:31.824Z,2.15
2022-12-27T15:50:15.800Z,2.67
2022-12-27T15:52:57.869Z,2.10
2022-12-27T15:55:37.953Z,2.33
2022-12-27T15:58:18.118Z,2.55
2022-12-27T16:00:55.720Z,2.03
2022-12-27T16:03:34.863Z,2.03
2022-12-27T16:06:07.708Z,1.80
2022-12-27T16:08:45.472Z,2.25
2022-12-27T16:11:17.069Z,1.80
2022-12-27T16:13:49.900Z,2.38
2022-12-27T16:16:37.123Z,2.28
2022-12-27T16:19:16.395Z,2.38
2022-12-27T16:21:50.768Z,2.25
2022-12-27T16:24:30.190Z,2.38
2022-12-27T16:27:33.840Z,2.15
2022-12-27T16:30:05.544Z,2.00
2022-12-27T16:32:35.005Z,2.33
2022-12-27T16:39:35.914Z,2.53
2022-12-27T16:42:06.849Z,2.60
2022-12-27T16:44:57.671Z,2.33
2022-12-27T16:47:34.744Z,2.72
2022-12-27T16:50:42.461Z,3.75
2022-12-27T16:53:23.510Z,2.97
2022-12-27T16:56:03.867Z,3.35
2022-12-27T16:59:10.166Z,3.80
2022-12-27T17:02:34.140Z,3.15
2022-12-27T17:05:35.067Z,3.50
2022-12-27T17:08:15.269Z,3.70
2022-12-27T17:11:04.942Z,2.75
2022-12-27T17:13:39.504Z,2.70
2022-12-27T17:16:09.480Z,3.08
2022-12-27T17:18:39.416Z,3.50
2022-12-27T17:21:09.759Z,3.28
2022-12-27T17:23:44.239Z,3.35
2022-12-27T17:26:28.903Z,2.90
2022-12-27T17:29:03.352Z,2.50
2022-12-27T17:31:55.674Z,3.67
2022-12-27T17:34:47.919Z,3.50
2022-12-27T17:40:29.764Z,3.10
2022-12-27T17:43:28.865Z,2.60
2022-12-27T17:46:03.197Z,3.00
2022-12-27T17:48:32.256Z,2.83
2022-12-27T17:51:02.625Z,2.75
2022-12-27T17:53:48.572Z,3.05
2022-12-27T17:59:40.093Z,2.90
2022-12-27T18:02:16.278Z,3.67
2022-12-27T18:04:52.002Z,3.15
2022-12-27T18:07:28.532Z,2.92
2022-12-27T18:10:00.477Z,2.28
2022-12-27T18:12:32.353Z,2.40
2022-12-27T18:15:03.263Z,2.50
2022-12-27T18:17:37.295Z,2.40
2022-12-27T18:20:24.313Z,2.33
2022-12-27T18:22:52.752Z,2.00
2022-12-27T18:25:25.429Z,2.15
2022-12-27T18:28:01.216Z,2.50
2022-12-27T18:30:30.618Z,2.20
2022-12-27T18:32:59.672Z,2.40
2022-12-27T18:35:28.309Z,2.78
2022-12-27T18:37:57.054Z,2.40
2022-12-27T18:40:26.131Z,2.78
2022-12-27T18:42:56.032Z,2.95
2022-12-27T18:45:26.705Z,2.88
2022-12-27T18:47:56.071Z,3.40
2022-12-27T18:50:25.441Z,3.00
2022-12-27T18:53:02.190Z,3.25
2022-12-27T18:55:32.048Z,3.70
2022-12-27T18:58:03.955Z,2.97
2022-12-27T19:00:35.986Z,3.67
2022-12-27T19:03:18.113Z,3.40
2022-12-27T19:05:58.555Z,2.95
2022-12-27T19:08:34.690Z,3.28
2022-12-27T19:11:03.082Z,3.40
2022-12-27T19:13:32.928Z,3.20
2022-12-27T19:16:02.969Z,3.15
2022-12-27T19:18:33.097Z,2.83
2022-12-27T19:21:02.566Z,3.47
2022-12-27T19:23:59.887Z,2.67
2022-12-27T19:26:31.956Z,3.00
2022-12-27T19:29:02.043Z,3.15
2022-12-27T19:32:21.040Z,2.78
2022-12-27T19:38:51.959Z,2.70
2022-12-27T19:45:18.080Z,2.47
2022-12-27T19:47:52.920Z,2.90
2022-12-27T19:51:15.827Z,3.00
2022-12-27T19:56:47.728Z,2.90
2022-12-27T19:59:18.693Z,2.90
2022-12-27T20:01:47.797Z,3.35
2022-12-27T20:04:17.457Z,2.80
2022-12-27T20:06:49.739Z,3.70
2022-12-27T20:09:22.821Z,3.78
2022-12-27T20:11:54.644Z,4.53
2022-12-27T20:14:28.676Z,4.13
2022-12-27T20:17:01.796Z,4.93
2022-12-27T20:19:33.505Z,4.03
2022-12-27T20:22:08.219Z,4.38
2022-12-27T20:24:40.640Z,5.00
2022-12-27T20:27:14.370Z,4.53
2022-12-27T20:29:52.382Z,4.82
2022-12-27T20:32:23.955Z,4.50
2022-12-27T20:39:10.606Z,4.90
2022-12-27T20:41:43.706Z,4.40
2022-12-27T20:47:32.266Z,4.47
2022-12-27T20:50:05.837Z,5.05
2022-12-27T20:52:40.532Z,4.93
2022-12-27T20:55:11.006Z,4.15
2022-12-27T20:57:47.781Z,4.95
2022-12-27T21:00:47.054Z,5.35
2022-12-27T21:11:06.873Z,4.88
2022-12-27T21:13:39.242Z,4.30
2022-12-27T21:28:39.813Z,4.90
2022-12-27T21:31:09.081Z,5.53
2022-12-27T21:33:52.355Z,4.25
2022-12-27T21:36:21.966Z,5.10
2022-12-27T21:38:50.890Z,5.47
2022-12-27T21:41:20.651Z,4.72
2022-12-27T21:48:18.607Z,5.00
2022-12-27T21:50:47.007Z,4.72
2022-12-27T21:53:27.826Z,5.65
2022-12-27T21:55:58.746Z,4.82
2022-12-27T21:58:27.727Z,5.10
2022-12-27T22:01:01.472Z,5.88
2022-12-27T22:03:35.841Z,5.30
2022-12-27T22:06:10.886Z,5.47
2022-12-27T22:08:39.325Z,4.95
2022-12-27T22:11:07.947Z,4.60
2022-12-27T22:13:37.226Z,4.45
2022-12-27T22:16:07.258Z,4.68
2022-12-27T22:18:37.547Z,4.82
2022-12-27T22:21:07.769Z,4.80
2022-12-27T22:23:37.117Z,4.57
2022-12-27T22:26:05.755Z,5.30
2022-12-27T22:28:34.040Z,4.80
2022-12-27T22:31:06.224Z,5.00
2022-12-27T22:33:34.677Z,4.07
2022-12-27T22:36:07.992Z,5.07
2022-12-27T22:38:37.068Z,4.32
2022-12-27T22:41:06.081Z,4.18
2022-12-27T22:43:34.435Z,3.97
2022-12-27T22:46:06.340Z,4.03
2022-12-27T22:48:34.766Z,3.35
2022-12-27T22:51:09.055Z,4.18
2022-12-27T22:53:37.872Z,4.15
2022-12-27T22:56:06.212Z,3.92
2022-12-27T22:58:34.543Z,4.00
2022-12-27T23:01:02.862Z,4.43
2022-12-27T23:03:31.233Z,3.88
2022-12-27T23:06:00.197Z,3.90
2022-12-27T23:08:29.836Z,3.78
2022-12-27T23:11:02.952Z,4.20
2022-12-27T23:13:31.254Z,3.78
2022-12-27T23:16:00.093Z,3.90
2022-12-27T23:18:28.968Z,3.90
2022-12-27T23:21:21.456Z,4.57
2022-12-27T23:23:46.933Z,3.38
2022-12-27T23:26:16.694Z,3.75
2022-12-27T23:28:45.959Z,3.55
2022-12-27T23:31:14.941Z,3.45
2022-12-27T23:33:43.869Z,4.00
2022-12-27T23:36:12.751Z,3.75
2022-12-27T23:38:41.561Z,3.42
2022-12-27T23:41:14.644Z,4.00
2022-12-27T23:43:58.482Z,2.75
2022-12-27T23:46:27.950Z,3.95
2022-12-27T23:48:56.894Z,3.30
2022-12-27T23:51:25.359Z,4.15
2022-12-27T23:53:53.756Z,3.42
2022-12-27T23:56:24.629Z,3.80
2022-12-27T23:58:54.102Z,3.78
